Detalhes do Voo

Voltar

 DETALHES DO VÔO

Piloto: GLD1151 Fellipe S. Aeronave: Carenado Pilatus PC12 v Distância: 322NM
Origem: SBMT Destino: SDEP Duração: 2.26
Validação: Validado Tipo: Charter Matrícula: PT-GLD
ZFW: 5600 Block Fuel/Init FOB 808/0 Combustível em Voo 808
Passageiros: 10 Carga: 0 Alternativo: SBCG
Hora da Decolagem: 2234 Velocidade de Cruzeiro: N0240 Nível de Voo: FL160
Regra Visual: IFR ICAO da Aeronave: PC12 Unidade de Peso: Kg
Data: 26/07/2020 Observação: GOLD ACARS Rede: VATSIM
Acidentou?: Não Comentários do Validador: Pontuação do Voo 106.6

 ROTA

ROTA DCT SCB A428 LON W46 PRR VRF DCT
REMARKS OPR/GOLD VIRTUAL AIRLINES PER/B RMK/FROM SBMT /PIC GLD1151

 PENALIDADES DO VOO

Para entender como cada item é pontuado, consulte as regras de avaliação.

Nenhuma penalidade registrada para este voo.

 ANÁLISE DO POUSO

Vento durante o pouso: 17º/0 kt Proa durante o pouso: 36
V/S do Pouso: -332 ft/min IAS do Pouso: 91 kt
Força G no pouso: 2.272 G Bank no pouso: -0.93
Pitch no Pouso -6.13 Flaps no Pouso 0
Nav Lights ON Landing Lights ON
Beacon Lights ON Strobe Lights ON

 MAPA DO VOO

 PERFIL VERTICAL DO VOO

 EVENTOS PRINCIPAIS DO VOO

DATAEVENTOIASALTITUDE
2020-07-27 01:34:39 GOLD ACARS VERSION 0.0.4.1300
2020-07-27 01:34:39 BOARDING22163
2020-07-27 01:35:48 NAV LIGHTS ON22163
2020-07-27 01:42:23 BCN LIGHTS ON22428
2020-07-27 01:42:42 STARTING ENGINE 122428
2020-07-27 01:48:48 TAXI LIGHTS ON22428
2020-07-27 01:49:39 TAXI TO THE RWY12429
2020-07-27 01:52:32 FLAP 33%22426
2020-07-27 01:59:52 LND LIGHTS ON32435
2020-07-27 01:59:53 STB LIGHTS ON32435
2020-07-27 01:59:54 TAXI LIGHTS OFF32435
2020-07-27 02:00:51 CLIMBING1262438
2020-07-27 02:00:51 GEAR UP1262438
2020-07-27 02:00:52 TAKE OFF WITH INCORRECT QNH - SET:1025 LOCAL: 10231262442
2020-07-27 02:00:59 FLAP 0%1262570
2020-07-27 02:02:04 CRUISE1624271
2020-07-27 02:07:08 LND LIGHTS OFF15910013
2020-07-27 03:26:18 DESCEND20115997
2020-07-27 03:30:22 LND LIGHTS ON2089972
2020-07-27 03:44:18 GEAR DOWN1371982
2020-07-27 03:44:21 FLAP 33%1371938
2020-07-27 03:45:53 STALL92981
2020-07-27 03:45:53 RECOVER FROM STALL91977
2020-07-27 03:45:54 LANDED91974
2020-07-27 03:46:15 AT THE GATE25971
2020-07-27 03:47:11 FLAP 0%11973
2020-07-27 03:47:40 TAXI LIGHTS ON0973
2020-07-27 03:47:40 LND LIGHTS OFF0973
2020-07-27 03:47:42 STB LIGHTS OFF0973
2020-07-27 03:48:33 STOPPING ENGINE 10973
2020-07-27 03:48:51 TAXI LIGHTS OFF0973
2020-07-27 03:48:53 BCN LIGHTS OFF0973
2020-07-27 03:49:14 NAV LIGHTS OFF0973
2020-07-27 03:49:54 FLIGHT FINISHED0974

 DADOS DO ACARS

DATA IAS GS ALTITUDE COMBUSTÍVEL USADO OAT FASE DO VOO
2020-07-27 01:36:39 3 0 2428 0 20 BOARDING
2020-07-27 01:37:39 3 0 2428 0 20 BOARDING
2020-07-27 01:38:40 3 0 2428 0 20 BOARDING
2020-07-27 01:39:40 3 0 2428 0 20 BOARDING
2020-07-27 01:40:40 3 0 2428 0 20 BOARDING
2020-07-27 01:41:41 3 0 2428 0 20 BOARDING
2020-07-27 01:42:41 3 0 2428 0 20 BOARDING
2020-07-27 01:43:42 3 0 2428 0 20 BOARDING
2020-07-27 01:44:42 3 0 2428 1 20 BOARDING
2020-07-27 01:45:42 3 0 2428 1 20 BOARDING
2020-07-27 01:46:43 3 0 2428 2 20 BOARDING
2020-07-27 01:47:43 3 0 2428 3 20 BOARDING
2020-07-27 01:48:43 3 0 2428 3 20 BOARDING
2020-07-27 01:49:44 1 5 2429 4 20 BOARDING
2020-07-27 01:50:44 0 0 2429 4 20 TAXI TO THE RWY
2020-07-27 01:51:45 1 4 2427 5 20 TAXI TO THE RWY
2020-07-27 01:52:45 2 6 2426 5 20 TAXI TO THE RWY
2020-07-27 01:53:45 4 8 2426 6 20 TAXI TO THE RWY
2020-07-27 01:54:46 3 8 2427 7 20 TAXI TO THE RWY
2020-07-27 01:55:46 3 6 2429 7 20 TAXI TO THE RWY
2020-07-27 01:56:47 3 7 2431 8 20 TAXI TO THE RWY
2020-07-27 01:57:47 0 4 2433 8 20 TAXI TO THE RWY
2020-07-27 01:58:47 0 0 2435 9 20 TAXI TO THE RWY
2020-07-27 01:59:48 4 0 2435 10 20 TAXI TO THE RWY
2020-07-27 02:00:48 118 122 2426 13 20 TAXI TO THE RWY
2020-07-27 02:01:49 156 169 3871 18 14 TAXI TO THE RWY
2020-07-27 02:02:49 198 222 4530 23 11 CLIMBING
2020-07-27 02:03:49 190 217 5549 27 9 CRUISE
2020-07-27 02:04:50 177 203 6765 32 7 CRUISE
2020-07-27 02:05:50 168 194 8166 36 5 CRUISE
2020-07-27 02:06:51 162 188 9596 40 4 CRUISE
2020-07-27 02:07:51 157 182 11093 44 2 CRUISE
2020-07-27 02:08:51 153 177 12293 49 0 CRUISE
2020-07-27 02:09:52 148 171 13794 53 -2 CRUISE
2020-07-27 02:10:52 142 166 15298 56 -6 CRUISE
2020-07-27 02:11:52 171 205 16006 60 -8 CRUISE
2020-07-27 02:12:53 196 236 16000 64 -8 CRUISE
2020-07-27 02:13:53 201 243 15999 68 -8 CRUISE
2020-07-27 02:14:54 203 244 15998 72 -8 CRUISE
2020-07-27 02:15:54 203 244 15998 76 -8 CRUISE
2020-07-27 02:16:54 203 245 15997 80 -8 CRUISE
2020-07-27 02:17:55 203 245 15997 84 -8 CRUISE
2020-07-27 02:18:55 203 245 16000 87 -8 CRUISE
2020-07-27 02:19:55 204 245 16000 91 -8 CRUISE
2020-07-27 02:20:56 204 245 16000 95 -8 CRUISE
2020-07-27 02:21:56 204 245 16000 99 -8 CRUISE
2020-07-27 02:22:56 204 255 16006 103 -8 CRUISE
2020-07-27 02:23:57 204 257 15999 107 -8 CRUISE
2020-07-27 02:24:57 204 249 15995 111 -8 CRUISE
2020-07-27 02:25:58 204 245 15999 115 -8 CRUISE
2020-07-27 02:26:58 204 245 15999 119 -8 CRUISE
2020-07-27 02:27:58 204 244 15998 122 -8 CRUISE
2020-07-27 02:28:59 204 244 15998 126 -8 CRUISE
2020-07-27 02:29:59 205 246 16018 130 -8 CRUISE
2020-07-27 02:30:59 204 245 15997 134 -8 CRUISE
2020-07-27 02:32:00 204 244 15997 138 -8 CRUISE
2020-07-27 02:33:00 204 244 16001 142 -8 CRUISE
2020-07-27 02:34:01 203 244 16000 146 -8 CRUISE
2020-07-27 02:35:01 203 244 16000 150 -8 CRUISE
2020-07-27 02:36:01 203 244 16000 153 -8 CRUISE
2020-07-27 02:37:02 203 244 15999 157 -8 CRUISE
2020-07-27 02:38:02 203 244 15999 161 -8 CRUISE
2020-07-27 02:39:02 203 244 15999 165 -8 CRUISE
2020-07-27 02:40:03 203 244 15998 169 -8 CRUISE
2020-07-27 02:41:03 203 243 15998 173 -8 CRUISE
2020-07-27 02:42:04 203 243 15998 177 -8 CRUISE
2020-07-27 02:43:04 203 243 15997 180 -8 CRUISE
2020-07-27 02:44:04 203 243 15997 184 -8 CRUISE
2020-07-27 02:45:05 202 242 15996 188 -8 CRUISE
2020-07-27 02:46:05 201 241 15997 192 -8 CRUISE
2020-07-27 02:47:05 201 241 16000 194 -8 CRUISE
2020-07-27 02:48:06 200 240 15996 198 -8 CRUISE
2020-07-27 02:49:06 201 241 16000 202 -8 CRUISE
2020-07-27 02:50:07 201 242 15999 205 -8 CRUISE
2020-07-27 02:51:07 201 242 15999 209 -8 CRUISE
2020-07-27 02:52:07 201 242 15999 213 -8 CRUISE
2020-07-27 02:53:08 201 242 15998 217 -8 CRUISE
2020-07-27 02:54:08 201 242 15998 220 -8 CRUISE
2020-07-27 02:55:08 201 241 15998 224 -8 CRUISE
2020-07-27 02:56:09 201 241 15997 228 -8 CRUISE
2020-07-27 02:57:09 201 241 15997 232 -8 CRUISE
2020-07-27 02:58:10 201 241 15997 235 -8 CRUISE
2020-07-27 02:59:10 201 240 15996 239 -8 CRUISE
2020-07-27 03:00:10 201 240 15996 243 -8 CRUISE
2020-07-27 03:01:11 201 240 16000 244 -8 CRUISE
2020-07-27 03:02:11 201 241 16000 248 -8 CRUISE
2020-07-27 03:03:11 201 241 15999 251 -8 CRUISE
2020-07-27 03:04:12 201 241 15999 255 -8 CRUISE
2020-07-27 03:05:12 201 241 15999 259 -8 CRUISE
2020-07-27 03:06:13 201 241 15998 263 -8 CRUISE
2020-07-27 03:07:13 201 241 15998 266 -8 CRUISE
2020-07-27 03:08:13 201 250 16005 270 -8 CRUISE
2020-07-27 03:09:14 201 235 15997 274 -8 CRUISE
2020-07-27 03:10:14 201 233 16001 278 -8 CRUISE
2020-07-27 03:11:14 201 234 15996 281 -8 CRUISE
2020-07-27 03:12:15 201 235 15996 285 -8 CRUISE
2020-07-27 03:13:15 201 235 15996 289 -8 CRUISE
2020-07-27 03:14:16 201 235 15995 293 -8 CRUISE
2020-07-27 03:15:16 202 235 16001 296 -8 CRUISE
2020-07-27 03:16:16 202 235 16000 300 -8 CRUISE
2020-07-27 03:17:17 202 237 16037 304 -8 CRUISE
2020-07-27 03:18:17 203 237 15999 308 -8 CRUISE
2020-07-27 03:19:18 202 236 15999 311 -8 CRUISE
2020-07-27 03:20:18 202 236 15998 315 -8 CRUISE
2020-07-27 03:21:18 202 236 15998 319 -8 CRUISE
2020-07-27 03:22:19 202 236 15998 323 -8 CRUISE
2020-07-27 03:23:19 202 236 15997 327 -8 CRUISE
2020-07-27 03:24:19 202 236 15997 330 -8 CRUISE
2020-07-27 03:25:20 201 236 15997 334 -7 CRUISE
2020-07-27 03:26:20 202 238 15967 338 -7 CRUISE
2020-07-27 03:27:21 200 231 14484 340 -3 DESCEND
2020-07-27 03:28:21 202 230 12946 341 0 DESCEND
2020-07-27 03:29:21 205 228 11416 343 2 DESCEND
2020-07-27 03:30:22 208 226 9959 344 5 DESCEND
2020-07-27 03:31:22 212 224 8431 346 6 DESCEND
2020-07-27 03:32:22 214 224 6905 348 8 DESCEND
2020-07-27 03:33:23 215 222 5170 350 11 DESCEND
2020-07-27 03:34:23 212 220 3139 351 18 DESCEND
2020-07-27 03:35:24 182 189 1997 352 24 DESCEND
2020-07-27 03:36:24 143 149 2078 354 24 DESCEND
2020-07-27 03:37:24 140 146 2002 355 24 DESCEND
2020-07-27 03:38:25 143 149 2001 357 24 DESCEND
2020-07-27 03:39:25 144 150 2001 358 24 DESCEND
2020-07-27 03:40:25 144 150 2000 360 24 DESCEND
2020-07-27 03:41:26 142 152 2007 362 24 DESCEND
2020-07-27 03:42:26 142 152 2000 364 24 DESCEND
2020-07-27 03:43:27 140 149 2006 365 24 DESCEND
2020-07-27 03:44:27 135 139 1858 367 25 DESCEND
2020-07-27 03:45:27 93 97 1111 368 28 DESCEND
2020-07-27 03:46:28 7 8 971 369 28 DESCEND
2020-07-27 03:47:28 6 6 973 370 28 AT THE GATE
2020-07-27 03:48:29 0 0 973 370 28 AT THE GATE
2020-07-27 03:49:29 0 0 974 370 28 AT THE GATE